sensor_id;sensor_type;location;lat;lon;timestamp;P1;durP1;ratioP1;P2;durP2;ratioP2
7527;SDS011;3805;49.006;8.514;2023-10-08T00:02:11;5.93;;;4.53;;
7527;SDS011;3805;49.006;8.514;2023-10-08T00:05:01;9.63;;;4.57;;
7527;SDS011;3805;49.006;8.514;2023-10-08T00:07:52;6.50;;;4.90;;
7527;SDS011;3805;49.006;8.514;2023-10-08T00:10:43;5.80;;;4.47;;
7527;SDS011;3805;49.006;8.514;2023-10-08T00:13:32;5.57;;;4.20;;
7527;SDS011;3805;49.006;8.514;2023-10-08T00:16:26;5.93;;;4.77;;
7527;SDS011;3805;49.006;8.514;2023-10-08T00:19:16;6.20;;;4.50;;
7527;SDS011;3805;49.006;8.514;2023-10-08T00:22:05;7.17;;;4.77;;
7527;SDS011;3805;49.006;8.514;2023-10-08T00:24:56;4.23;;;3.73;;
7527;SDS011;3805;49.006;8.514;2023-10-08T00:27:45;6.50;;;4.13;;
7527;SDS011;3805;49.006;8.514;2023-10-08T00:30:38;6.47;;;4.37;;
7527;SDS011;3805;49.006;8.514;2023-10-08T00:33:28;7.27;;;4.73;;
7527;SDS011;3805;49.006;8.514;2023-10-08T00:36:17;14.50;;;4.70;;
7527;SDS011;3805;49.006;8.514;2023-10-08T00:39:06;6.87;;;4.33;;
7527;SDS011;3805;49.006;8.514;2023-10-08T00:42:01;6.37;;;5.13;;
7527;SDS011;3805;49.006;8.514;2023-10-08T00:44:54;6.67;;;4.27;;
7527;SDS011;3805;49.006;8.514;2023-10-08T00:47:44;8.43;;;4.50;;
7527;SDS011;3805;49.006;8.514;2023-10-08T00:50:33;5.77;;;3.93;;
7527;SDS011;3805;49.006;8.514;2023-10-08T00:53:30;4.93;;;3.83;;
7527;SDS011;3805;49.006;8.514;2023-10-08T00:56:26;5.80;;;4.30;;
7527;SDS011;3805;49.006;8.514;2023-10-08T00:59:33;5.03;;;4.40;;
7527;SDS011;3805;49.006;8.514;2023-10-08T01:02:31;7.87;;;4.30;;
7527;SDS011;3805;49.006;8.514;2023-10-08T01:05:32;6.70;;;4.10;;
7527;SDS011;3805;49.006;8.514;2023-10-08T01:08:33;5.63;;;4.00;;
7527;SDS011;3805;49.006;8.514;2023-10-08T01:11:23;7.53;;;4.10;;
7527;SDS011;3805;49.006;8.514;2023-10-08T01:14:20;4.40;;;3.70;;
7527;SDS011;3805;49.006;8.514;2023-10-08T01:17:20;6.27;;;4.67;;
7527;SDS011;3805;49.006;8.514;2023-10-08T01:20:12;4.90;;;3.30;;
7527;SDS011;3805;49.006;8.514;2023-10-08T01:23:21;7.80;;;3.60;;
7527;SDS011;3805;49.006;8.514;2023-10-08T01:26:14;8.10;;;3.63;;
7527;SDS011;3805;49.006;8.514;2023-10-08T01:29:10;5.80;;;4.10;;
7527;SDS011;3805;49.006;8.514;2023-10-08T01:32:06;5.23;;;3.63;;
7527;SDS011;3805;49.006;8.514;2023-10-08T01:34:58;7.57;;;4.40;;
7527;SDS011;3805;49.006;8.514;2023-10-08T01:37:47;4.67;;;3.53;;
7527;SDS011;3805;49.006;8.514;2023-10-08T01:40:38;6.27;;;4.10;;
7527;SDS011;3805;49.006;8.514;2023-10-08T01:43:28;6.23;;;3.70;;
7527;SDS011;3805;49.006;8.514;2023-10-08T01:46:16;5.80;;;3.83;;
7527;SDS011;3805;49.006;8.514;2023-10-08T01:49:09;6.43;;;4.67;;
7527;SDS011;3805;49.006;8.514;2023-10-08T01:52:01;7.80;;;4.10;;
7527;SDS011;3805;49.006;8.514;2023-10-08T01:55:00;6.00;;;3.93;;
7527;SDS011;3805;49.006;8.514;2023-10-08T01:57:51;8.80;;;3.67;;
7527;SDS011;3805;49.006;8.514;2023-10-08T02:00:41;4.07;;;3.33;;
7527;SDS011;3805;49.006;8.514;2023-10-08T02:03:32;5.73;;;3.70;;
7527;SDS011;3805;49.006;8.514;2023-10-08T02:06:21;5.70;;;3.40;;
7527;SDS011;3805;49.006;8.514;2023-10-08T02:09:09;4.37;;;3.30;;
7527;SDS011;3805;49.006;8.514;2023-10-08T02:12:00;6.30;;;4.20;;
7527;SDS011;3805;49.006;8.514;2023-10-08T02:14:52;7.03;;;3.33;;
7527;SDS011;3805;49.006;8.514;2023-10-08T02:17:40;5.33;;;4.00;;
7527;SDS011;3805;49.006;8.514;2023-10-08T02:20:30;4.77;;;3.60;;
7527;SDS011;3805;49.006;8.514;2023-10-08T02:23:19;4.33;;;3.73;;
7527;SDS011;3805;49.006;8.514;2023-10-08T02:26:08;6.73;;;4.10;;
7527;SDS011;3805;49.006;8.514;2023-10-08T02:28:58;4.47;;;3.27;;
7527;SDS011;3805;49.006;8.514;2023-10-08T02:31:48;6.13;;;3.80;;
7527;SDS011;3805;49.006;8.514;2023-10-08T02:34:37;3.90;;;3.37;;
7527;SDS011;3805;49.006;8.514;2023-10-08T02:37:26;7.00;;;3.87;;
7527;SDS011;3805;49.006;8.514;2023-10-08T02:40:15;6.00;;;4.00;;
7527;SDS011;3805;49.006;8.514;2023-10-08T02:43:12;8.30;;;4.10;;
7527;SDS011;3805;49.006;8.514;2023-10-08T02:46:02;6.30;;;3.60;;
7527;SDS011;3805;49.006;8.514;2023-10-08T02:48:55;6.07;;;3.80;;
7527;SDS011;3805;49.006;8.514;2023-10-08T02:51:45;5.63;;;3.50;;
7527;SDS011;3805;49.006;8.514;2023-10-08T02:54:34;4.83;;;3.67;;
7527;SDS011;3805;49.006;8.514;2023-10-08T02:57:24;5.77;;;3.50;;
7527;SDS011;3805;49.006;8.514;2023-10-08T03:00:16;8.90;;;3.90;;
7527;SDS011;3805;49.006;8.514;2023-10-08T03:03:07;6.13;;;3.37;;
7527;SDS011;3805;49.006;8.514;2023-10-08T03:06:04;4.70;;;3.50;;
7527;SDS011;3805;49.006;8.514;2023-10-08T03:08:58;7.20;;;4.10;;
7527;SDS011;3805;49.006;8.514;2023-10-08T03:11:51;5.60;;;3.60;;
7527;SDS011;3805;49.006;8.514;2023-10-08T03:14:40;6.57;;;3.63;;
7527;SDS011;3805;49.006;8.514;2023-10-08T03:17:37;6.37;;;3.80;;
7527;SDS011;3805;49.006;8.514;2023-10-08T03:20:35;6.10;;;3.50;;
7527;SDS011;3805;49.006;8.514;2023-10-08T03:23:31;6.83;;;4.50;;
7527;SDS011;3805;49.006;8.514;2023-10-08T03:26:22;4.40;;;3.40;;
7527;SDS011;3805;49.006;8.514;2023-10-08T03:29:23;9.80;;;4.77;;
7527;SDS011;3805;49.006;8.514;2023-10-08T03:32:17;4.53;;;3.40;;
7527;SDS011;3805;49.006;8.514;2023-10-08T03:35:11;7.87;;;4.50;;
7527;SDS011;3805;49.006;8.514;2023-10-08T03:38:00;5.83;;;3.40;;
7527;SDS011;3805;49.006;8.514;2023-10-08T03:41:08;5.73;;;3.53;;
7527;SDS011;3805;49.006;8.514;2023-10-08T03:44:03;7.63;;;4.20;;
7527;SDS011;3805;49.006;8.514;2023-10-08T03:46:59;9.40;;;4.10;;
7527;SDS011;3805;49.006;8.514;2023-10-08T03:49:57;4.50;;;4.03;;
7527;SDS011;3805;49.006;8.514;2023-10-08T03:52:52;3.73;;;3.33;;
7527;SDS011;3805;49.006;8.514;2023-10-08T03:55:42;6.50;;;3.70;;
7527;SDS011;3805;49.006;8.514;2023-10-08T03:58:32;4.50;;;3.30;;
7527;SDS011;3805;49.006;8.514;2023-10-08T04:01:28;4.80;;;3.63;;
7527;SDS011;3805;49.006;8.514;2023-10-08T04:04:20;4.83;;;4.13;;
7527;SDS011;3805;49.006;8.514;2023-10-08T04:07:17;7.30;;;4.27;;
7527;SDS011;3805;49.006;8.514;2023-10-08T04:10:32;11.83;;;4.50;;
7527;SDS011;3805;49.006;8.514;2023-10-08T04:13:48;6.90;;;3.80;;
7527;SDS011;3805;49.006;8.514;2023-10-08T04:16:39;5.83;;;4.00;;
7527;SDS011;3805;49.006;8.514;2023-10-08T04:19:27;5.10;;;4.13;;
7527;SDS011;3805;49.006;8.514;2023-10-08T04:22:16;5.10;;;4.00;;
7527;SDS011;3805;49.006;8.514;2023-10-08T04:25:06;4.63;;;4.10;;
7527;SDS011;3805;49.006;8.514;2023-10-08T04:27:55;5.83;;;3.80;;
7527;SDS011;3805;49.006;8.514;2023-10-08T04:30:46;6.97;;;4.13;;
7527;SDS011;3805;49.006;8.514;2023-10-08T04:33:38;7.03;;;4.60;;
7527;SDS011;3805;49.006;8.514;2023-10-08T04:36:26;5.80;;;4.13;;
7527;SDS011;3805;49.006;8.514;2023-10-08T04:39:15;6.10;;;4.03;;
7527;SDS011;3805;49.006;8.514;2023-10-08T04:42:08;5.57;;;4.10;;
7527;SDS011;3805;49.006;8.514;2023-10-08T04:44:58;6.07;;;4.00;;
7527;SDS011;3805;49.006;8.514;2023-10-08T04:47:48;6.20;;;4.07;;
7527;SDS011;3805;49.006;8.514;2023-10-08T04:50:36;4.30;;;3.67;;
7527;SDS011;3805;49.006;8.514;2023-10-08T04:53:26;3.53;;;3.10;;
7527;SDS011;3805;49.006;8.514;2023-10-08T04:56:23;6.87;;;3.43;;
7527;SDS011;3805;49.006;8.514;2023-10-08T04:59:12;5.10;;;4.33;;
7527;SDS011;3805;49.006;8.514;2023-10-08T05:02:01;7.73;;;4.53;;
7527;SDS011;3805;49.006;8.514;2023-10-08T05:05:09;4.87;;;3.73;;
7527;SDS011;3805;49.006;8.514;2023-10-08T05:08:10;6.00;;;4.00;;
7527;SDS011;3805;49.006;8.514;2023-10-08T05:11:16;5.93;;;3.67;;
7527;SDS011;3805;49.006;8.514;2023-10-08T05:14:13;6.40;;;3.73;;
7527;SDS011;3805;49.006;8.514;2023-10-08T05:17:15;4.40;;;4.00;;
7527;SDS011;3805;49.006;8.514;2023-10-08T05:20:11;5.67;;;4.13;;
7527;SDS011;3805;49.006;8.514;2023-10-08T05:23:18;5.27;;;4.03;;
7527;SDS011;3805;49.006;8.514;2023-10-08T05:26:40;5.87;;;3.87;;
7527;SDS011;3805;49.006;8.514;2023-10-08T05:29:36;6.20;;;4.50;;
7527;SDS011;3805;49.006;8.514;2023-10-08T05:32:39;6.70;;;4.03;;
7527;SDS011;3805;49.006;8.514;2023-10-08T05:35:54;4.50;;;3.80;;
7527;SDS011;3805;49.006;8.514;2023-10-08T05:38:49;5.50;;;4.30;;
7527;SDS011;3805;49.006;8.514;2023-10-08T05:41:47;4.97;;;3.37;;
7527;SDS011;3805;49.006;8.514;2023-10-08T05:44:39;5.60;;;3.90;;
7527;SDS011;3805;49.006;8.514;2023-10-08T05:47:33;6.50;;;4.30;;
7527;SDS011;3805;49.006;8.514;2023-10-08T05:50:28;5.30;;;3.83;;
7527;SDS011;3805;49.006;8.514;2023-10-08T05:53:27;5.83;;;3.57;;
7527;SDS011;3805;49.006;8.514;2023-10-08T05:56:31;5.70;;;3.97;;
7527;SDS011;3805;49.006;8.514;2023-10-08T05:59:39;9.73;;;4.03;;
7527;SDS011;3805;49.006;8.514;2023-10-08T06:02:40;4.77;;;3.50;;
7527;SDS011;3805;49.006;8.514;2023-10-08T06:05:48;4.33;;;3.93;;
7527;SDS011;3805;49.006;8.514;2023-10-08T06:08:57;5.90;;;3.33;;
7527;SDS011;3805;49.006;8.514;2023-10-08T06:12:04;6.37;;;4.03;;
7527;SDS011;3805;49.006;8.514;2023-10-08T06:15:07;4.87;;;3.40;;
7527;SDS011;3805;49.006;8.514;2023-10-08T06:17:56;9.80;;;4.10;;
7527;SDS011;3805;49.006;8.514;2023-10-08T06:20:46;5.60;;;4.60;;
7527;SDS011;3805;49.006;8.514;2023-10-08T06:23:35;4.40;;;3.50;;
7527;SDS011;3805;49.006;8.514;2023-10-08T06:26:26;4.30;;;3.33;;
7527;SDS011;3805;49.006;8.514;2023-10-08T06:29:21;5.40;;;4.40;;
7527;SDS011;3805;49.006;8.514;2023-10-08T06:32:15;7.87;;;4.40;;
7527;SDS011;3805;49.006;8.514;2023-10-08T06:35:06;6.70;;;4.07;;
7527;SDS011;3805;49.006;8.514;2023-10-08T06:37:56;5.90;;;3.70;;
7527;SDS011;3805;49.006;8.514;2023-10-08T06:40:46;4.83;;;3.07;;
7527;SDS011;3805;49.006;8.514;2023-10-08T06:43:37;4.10;;;3.70;;
7527;SDS011;3805;49.006;8.514;2023-10-08T06:46:26;7.80;;;3.70;;
7527;SDS011;3805;49.006;8.514;2023-10-08T06:49:16;8.20;;;3.27;;
7527;SDS011;3805;49.006;8.514;2023-10-08T06:52:06;6.50;;;3.80;;
7527;SDS011;3805;49.006;8.514;2023-10-08T06:54:58;4.73;;;3.70;;
7527;SDS011;3805;49.006;8.514;2023-10-08T06:57:49;5.70;;;3.40;;
7527;SDS011;3805;49.006;8.514;2023-10-08T07:00:39;6.40;;;4.20;;
7527;SDS011;3805;49.006;8.514;2023-10-08T07:03:33;5.63;;;3.90;;
7527;SDS011;3805;49.006;8.514;2023-10-08T07:06:25;5.80;;;4.20;;
7527;SDS011;3805;49.006;8.514;2023-10-08T07:09:18;6.83;;;4.00;;
7527;SDS011;3805;49.006;8.514;2023-10-08T07:12:17;7.73;;;4.07;;
7527;SDS011;3805;49.006;8.514;2023-10-08T07:15:06;10.10;;;4.60;;
7527;SDS011;3805;49.006;8.514;2023-10-08T07:18:01;5.43;;;4.13;;
7527;SDS011;3805;49.006;8.514;2023-10-08T07:20:56;7.00;;;4.53;;
7527;SDS011;3805;49.006;8.514;2023-10-08T07:23:48;7.70;;;4.50;;
7527;SDS011;3805;49.006;8.514;2023-10-08T07:26:47;7.30;;;4.40;;
7527;SDS011;3805;49.006;8.514;2023-10-08T07:29:36;7.97;;;5.33;;
7527;SDS011;3805;49.006;8.514;2023-10-08T07:32:25;6.50;;;5.40;;
7527;SDS011;3805;49.006;8.514;2023-10-08T07:35:15;5.80;;;4.47;;
7527;SDS011;3805;49.006;8.514;2023-10-08T07:38:11;3.90;;;3.50;;
7527;SDS011;3805;49.006;8.514;2023-10-08T07:41:00;5.53;;;4.10;;
7527;SDS011;3805;49.006;8.514;2023-10-08T07:43:49;8.63;;;4.20;;
7527;SDS011;3805;49.006;8.514;2023-10-08T07:46:42;6.23;;;4.20;;
7527;SDS011;3805;49.006;8.514;2023-10-08T07:49:31;8.27;;;4.37;;
7527;SDS011;3805;49.006;8.514;2023-10-08T07:52:21;5.23;;;4.40;;
7527;SDS011;3805;49.006;8.514;2023-10-08T07:55:10;4.40;;;3.53;;
7527;SDS011;3805;49.006;8.514;2023-10-08T07:58:04;6.40;;;4.93;;
7527;SDS011;3805;49.006;8.514;2023-10-08T08:00:57;5.73;;;4.30;;
7527;SDS011;3805;49.006;8.514;2023-10-08T08:03:47;7.67;;;4.50;;
7527;SDS011;3805;49.006;8.514;2023-10-08T08:06:37;5.37;;;4.30;;
7527;SDS011;3805;49.006;8.514;2023-10-08T08:09:27;5.80;;;3.80;;
7527;SDS011;3805;49.006;8.514;2023-10-08T08:12:17;5.63;;;4.27;;
7527;SDS011;3805;49.006;8.514;2023-10-08T08:15:06;5.27;;;4.30;;
7527;SDS011;3805;49.006;8.514;2023-10-08T08:18:02;6.73;;;4.33;;
7527;SDS011;3805;49.006;8.514;2023-10-08T08:20:53;4.30;;;3.90;;
7527;SDS011;3805;49.006;8.514;2023-10-08T08:23:47;5.10;;;4.00;;
7527;SDS011;3805;49.006;8.514;2023-10-08T08:26:37;7.83;;;4.23;;
7527;SDS011;3805;49.006;8.514;2023-10-08T08:29:32;7.10;;;5.17;;
7527;SDS011;3805;49.006;8.514;2023-10-08T08:32:31;7.13;;;4.90;;
7527;SDS011;3805;49.006;8.514;2023-10-08T08:35:20;5.17;;;3.73;;
7527;SDS011;3805;49.006;8.514;2023-10-08T08:38:09;7.97;;;5.30;;
7527;SDS011;3805;49.006;8.514;2023-10-08T08:41:02;5.83;;;4.27;;
7527;SDS011;3805;49.006;8.514;2023-10-08T08:43:55;6.60;;;3.90;;
7527;SDS011;3805;49.006;8.514;2023-10-08T08:46:46;7.17;;;4.47;;
7527;SDS011;3805;49.006;8.514;2023-10-08T08:49:36;6.30;;;3.73;;
7527;SDS011;3805;49.006;8.514;2023-10-08T08:52:25;4.97;;;3.53;;
7527;SDS011;3805;49.006;8.514;2023-10-08T08:55:14;5.00;;;4.00;;
7527;SDS011;3805;49.006;8.514;2023-10-08T08:58:05;7.50;;;3.80;;
7527;SDS011;3805;49.006;8.514;2023-10-08T09:00:59;7.60;;;4.00;;
7527;SDS011;3805;49.006;8.514;2023-10-08T09:03:50;5.70;;;3.90;;
7527;SDS011;3805;49.006;8.514;2023-10-08T09:06:39;7.00;;;4.10;;
7527;SDS011;3805;49.006;8.514;2023-10-08T09:09:31;6.03;;;4.30;;
7527;SDS011;3805;49.006;8.514;2023-10-08T09:12:20;7.40;;;4.23;;
7527;SDS011;3805;49.006;8.514;2023-10-08T09:15:09;6.27;;;4.33;;
7527;SDS011;3805;49.006;8.514;2023-10-08T09:18:00;6.13;;;3.90;;
7527;SDS011;3805;49.006;8.514;2023-10-08T09:20:50;8.13;;;4.10;;
7527;SDS011;3805;49.006;8.514;2023-10-08T09:23:39;7.40;;;4.30;;
7527;SDS011;3805;49.006;8.514;2023-10-08T09:26:30;7.13;;;4.50;;
7527;SDS011;3805;49.006;8.514;2023-10-08T09:29:21;5.10;;;3.80;;
7527;SDS011;3805;49.006;8.514;2023-10-08T09:32:11;6.00;;;3.70;;
7527;SDS011;3805;49.006;8.514;2023-10-08T09:35:02;5.50;;;4.17;;
7527;SDS011;3805;49.006;8.514;2023-10-08T09:37:53;8.10;;;3.80;;
7527;SDS011;3805;49.006;8.514;2023-10-08T09:40:42;4.80;;;3.43;;
7527;SDS011;3805;49.006;8.514;2023-10-08T09:43:31;5.40;;;3.57;;
7527;SDS011;3805;49.006;8.514;2023-10-08T09:46:23;7.43;;;4.23;;
7527;SDS011;3805;49.006;8.514;2023-10-08T09:49:15;6.70;;;3.80;;
7527;SDS011;3805;49.006;8.514;2023-10-08T09:52:07;7.43;;;3.97;;
7527;SDS011;3805;49.006;8.514;2023-10-08T09:54:59;7.37;;;4.43;;
7527;SDS011;3805;49.006;8.514;2023-10-08T09:57:50;6.70;;;3.63;;
7527;SDS011;3805;49.006;8.514;2023-10-08T10:00:42;5.93;;;4.07;;
7527;SDS011;3805;49.006;8.514;2023-10-08T10:03:32;7.83;;;3.80;;
7527;SDS011;3805;49.006;8.514;2023-10-08T10:06:23;9.57;;;4.50;;
7527;SDS011;3805;49.006;8.514;2023-10-08T10:09:19;8.53;;;3.70;;
7527;SDS011;3805;49.006;8.514;2023-10-08T10:12:09;5.30;;;3.73;;
7527;SDS011;3805;49.006;8.514;2023-10-08T10:14:59;5.40;;;3.83;;
7527;SDS011;3805;49.006;8.514;2023-10-08T10:17:47;6.93;;;3.70;;
7527;SDS011;3805;49.006;8.514;2023-10-08T10:20:41;7.07;;;4.10;;
7527;SDS011;3805;49.006;8.514;2023-10-08T10:23:36;4.13;;;3.70;;
7527;SDS011;3805;49.006;8.514;2023-10-08T10:26:28;6.10;;;4.10;;
7527;SDS011;3805;49.006;8.514;2023-10-08T10:29:21;7.23;;;3.70;;
7527;SDS011;3805;49.006;8.514;2023-10-08T10:32:14;7.87;;;4.20;;
7527;SDS011;3805;49.006;8.514;2023-10-08T10:35:03;10.77;;;4.40;;
7527;SDS011;3805;49.006;8.514;2023-10-08T10:37:53;8.20;;;4.27;;
7527;SDS011;3805;49.006;8.514;2023-10-08T10:40:42;7.70;;;4.40;;
7527;SDS011;3805;49.006;8.514;2023-10-08T10:43:34;6.47;;;4.27;;
7527;SDS011;3805;49.006;8.514;2023-10-08T10:46:27;6.00;;;3.77;;
7527;SDS011;3805;49.006;8.514;2023-10-08T10:49:18;7.40;;;4.13;;
7527;SDS011;3805;49.006;8.514;2023-10-08T10:52:08;8.33;;;3.83;;
7527;SDS011;3805;49.006;8.514;2023-10-08T10:55:05;7.17;;;4.03;;
7527;SDS011;3805;49.006;8.514;2023-10-08T10:58:07;7.80;;;4.57;;
7527;SDS011;3805;49.006;8.514;2023-10-08T11:01:02;6.70;;;4.10;;
7527;SDS011;3805;49.006;8.514;2023-10-08T11:03:56;4.70;;;4.07;;
7527;SDS011;3805;49.006;8.514;2023-10-08T11:06:46;8.07;;;3.80;;
7527;SDS011;3805;49.006;8.514;2023-10-08T11:09:37;5.40;;;3.93;;
7527;SDS011;3805;49.006;8.514;2023-10-08T11:12:31;9.00;;;4.43;;
7527;SDS011;3805;49.006;8.514;2023-10-08T11:15:30;7.30;;;4.40;;
7527;SDS011;3805;49.006;8.514;2023-10-08T11:18:26;8.03;;;3.77;;
7527;SDS011;3805;49.006;8.514;2023-10-08T11:21:16;8.43;;;5.90;;
7527;SDS011;3805;49.006;8.514;2023-10-08T11:24:09;5.97;;;4.33;;
7527;SDS011;3805;49.006;8.514;2023-10-08T11:26:59;8.60;;;5.10;;
7527;SDS011;3805;49.006;8.514;2023-10-08T11:30:03;6.37;;;3.60;;
7527;SDS011;3805;49.006;8.514;2023-10-08T11:32:59;7.00;;;4.17;;
7527;SDS011;3805;49.006;8.514;2023-10-08T11:35:58;6.80;;;3.90;;
7527;SDS011;3805;49.006;8.514;2023-10-08T11:38:48;8.63;;;4.80;;
7527;SDS011;3805;49.006;8.514;2023-10-08T11:41:40;6.90;;;4.53;;
7527;SDS011;3805;49.006;8.514;2023-10-08T11:44:37;6.67;;;3.93;;
7527;SDS011;3805;49.006;8.514;2023-10-08T11:47:26;7.83;;;4.13;;
7527;SDS011;3805;49.006;8.514;2023-10-08T11:50:23;6.30;;;3.73;;
7527;SDS011;3805;49.006;8.514;2023-10-08T11:53:20;6.97;;;4.17;;
7527;SDS011;3805;49.006;8.514;2023-10-08T11:56:09;6.63;;;4.03;;
7527;SDS011;3805;49.006;8.514;2023-10-08T11:59:01;9.20;;;4.37;;
7527;SDS011;3805;49.006;8.514;2023-10-08T12:01:55;7.00;;;4.30;;
7527;SDS011;3805;49.006;8.514;2023-10-08T12:04:44;4.83;;;3.27;;
7527;SDS011;3805;49.006;8.514;2023-10-08T12:07:35;7.67;;;5.00;;
7527;SDS011;3805;49.006;8.514;2023-10-08T12:10:28;6.00;;;4.87;;
7527;SDS011;3805;49.006;8.514;2023-10-08T12:13:21;6.57;;;4.30;;
7527;SDS011;3805;49.006;8.514;2023-10-08T12:16:12;8.17;;;4.20;;
7527;SDS011;3805;49.006;8.514;2023-10-08T12:19:05;9.67;;;4.00;;
7527;SDS011;3805;49.006;8.514;2023-10-08T12:22:03;5.43;;;4.67;;
7527;SDS011;3805;49.006;8.514;2023-10-08T12:24:51;5.93;;;4.00;;
7527;SDS011;3805;49.006;8.514;2023-10-08T12:27:41;6.10;;;4.30;;
7527;SDS011;3805;49.006;8.514;2023-10-08T12:30:30;9.73;;;4.40;;
7527;SDS011;3805;49.006;8.514;2023-10-08T12:33:19;4.73;;;4.20;;
7527;SDS011;3805;49.006;8.514;2023-10-08T12:36:09;7.07;;;4.33;;
7527;SDS011;3805;49.006;8.514;2023-10-08T12:39:00;7.67;;;4.53;;
7527;SDS011;3805;49.006;8.514;2023-10-08T12:41:56;8.87;;;4.40;;
7527;SDS011;3805;49.006;8.514;2023-10-08T12:44:53;5.70;;;4.07;;
7527;SDS011;3805;49.006;8.514;2023-10-08T12:47:45;8.53;;;5.23;;
7527;SDS011;3805;49.006;8.514;2023-10-08T12:50:34;9.60;;;4.20;;
7527;SDS011;3805;49.006;8.514;2023-10-08T12:53:30;10.53;;;4.53;;
7527;SDS011;3805;49.006;8.514;2023-10-08T12:56:22;8.03;;;5.10;;
7527;SDS011;3805;49.006;8.514;2023-10-08T12:59:19;7.57;;;4.03;;
7527;SDS011;3805;49.006;8.514;2023-10-08T13:02:10;5.70;;;4.47;;
7527;SDS011;3805;49.006;8.514;2023-10-08T13:04:59;6.43;;;4.20;;
7527;SDS011;3805;49.006;8.514;2023-10-08T13:07:47;8.67;;;4.90;;
7527;SDS011;3805;49.006;8.514;2023-10-08T13:10:36;8.57;;;4.33;;
7527;SDS011;3805;49.006;8.514;2023-10-08T13:13:28;10.03;;;4.23;;
7527;SDS011;3805;49.006;8.514;2023-10-08T13:16:17;4.70;;;3.87;;
7527;SDS011;3805;49.006;8.514;2023-10-08T13:19:07;10.13;;;4.30;;
7527;SDS011;3805;49.006;8.514;2023-10-08T13:21:56;6.50;;;3.50;;
7527;SDS011;3805;49.006;8.514;2023-10-08T13:24:46;10.87;;;4.77;;
7527;SDS011;3805;49.006;8.514;2023-10-08T13:27:36;7.80;;;5.33;;
7527;SDS011;3805;49.006;8.514;2023-10-08T13:30:26;9.17;;;4.60;;
7527;SDS011;3805;49.006;8.514;2023-10-08T13:33:15;10.30;;;4.23;;
7527;SDS011;3805;49.006;8.514;2023-10-08T13:36:06;7.23;;;4.30;;
7527;SDS011;3805;49.006;8.514;2023-10-08T13:39:04;8.30;;;4.37;;
7527;SDS011;3805;49.006;8.514;2023-10-08T13:41:56;10.30;;;4.70;;
7527;SDS011;3805;49.006;8.514;2023-10-08T13:44:48;12.30;;;5.07;;
7527;SDS011;3805;49.006;8.514;2023-10-08T13:47:38;6.97;;;4.00;;
7527;SDS011;3805;49.006;8.514;2023-10-08T13:50:27;6.10;;;4.20;;
7527;SDS011;3805;49.006;8.514;2023-10-08T13:53:19;8.93;;;4.97;;
7527;SDS011;3805;49.006;8.514;2023-10-08T13:56:08;10.33;;;4.57;;
7527;SDS011;3805;49.006;8.514;2023-10-08T13:58:59;12.10;;;5.17;;
7527;SDS011;3805;49.006;8.514;2023-10-08T14:01:59;7.53;;;4.33;;
7527;SDS011;3805;49.006;8.514;2023-10-08T14:04:49;7.53;;;4.30;;
7527;SDS011;3805;49.006;8.514;2023-10-08T14:07:40;7.97;;;4.60;;
7527;SDS011;3805;49.006;8.514;2023-10-08T14:10:32;6.27;;;4.63;;
7527;SDS011;3805;49.006;8.514;2023-10-08T14:13:23;6.50;;;4.33;;
7527;SDS011;3805;49.006;8.514;2023-10-08T14:16:11;9.50;;;4.53;;
7527;SDS011;3805;49.006;8.514;2023-10-08T14:19:01;7.83;;;4.07;;
7527;SDS011;3805;49.006;8.514;2023-10-08T14:21:51;9.00;;;5.13;;
7527;SDS011;3805;49.006;8.514;2023-10-08T14:24:47;6.23;;;4.33;;
7527;SDS011;3805;49.006;8.514;2023-10-08T14:27:47;8.23;;;4.37;;
7527;SDS011;3805;49.006;8.514;2023-10-08T14:30:42;10.07;;;4.90;;
7527;SDS011;3805;49.006;8.514;2023-10-08T14:33:31;8.93;;;5.00;;
7527;SDS011;3805;49.006;8.514;2023-10-08T14:36:28;6.77;;;4.80;;
7527;SDS011;3805;49.006;8.514;2023-10-08T14:39:35;7.00;;;4.90;;
7527;SDS011;3805;49.006;8.514;2023-10-08T14:42:41;7.10;;;3.80;;
7527;SDS011;3805;49.006;8.514;2023-10-08T14:45:47;8.63;;;4.43;;
7527;SDS011;3805;49.006;8.514;2023-10-08T14:48:36;4.20;;;3.63;;
7527;SDS011;3805;49.006;8.514;2023-10-08T14:51:28;6.27;;;4.47;;
7527;SDS011;3805;49.006;8.514;2023-10-08T14:54:18;9.70;;;4.30;;
7527;SDS011;3805;49.006;8.514;2023-10-08T14:57:07;8.83;;;4.90;;
7527;SDS011;3805;49.006;8.514;2023-10-08T14:59:57;8.07;;;4.70;;
7527;SDS011;3805;49.006;8.514;2023-10-08T15:02:47;6.77;;;5.23;;
7527;SDS011;3805;49.006;8.514;2023-10-08T15:05:35;7.10;;;4.50;;
7527;SDS011;3805;49.006;8.514;2023-10-08T15:08:25;10.23;;;4.70;;
7527;SDS011;3805;49.006;8.514;2023-10-08T15:11:14;5.40;;;4.30;;
7527;SDS011;3805;49.006;8.514;2023-10-08T15:14:03;7.30;;;4.60;;
7527;SDS011;3805;49.006;8.514;2023-10-08T15:16:57;7.27;;;4.40;;
7527;SDS011;3805;49.006;8.514;2023-10-08T15:19:46;8.63;;;5.93;;
7527;SDS011;3805;49.006;8.514;2023-10-08T15:22:35;10.17;;;5.37;;
7527;SDS011;3805;49.006;8.514;2023-10-08T15:25:23;10.63;;;5.43;;
7527;SDS011;3805;49.006;8.514;2023-10-08T15:28:12;7.43;;;5.20;;
7527;SDS011;3805;49.006;8.514;2023-10-08T15:31:00;9.93;;;4.83;;
7527;SDS011;3805;49.006;8.514;2023-10-08T15:33:49;9.93;;;5.30;;
7527;SDS011;3805;49.006;8.514;2023-10-08T15:36:39;8.47;;;4.33;;
7527;SDS011;3805;49.006;8.514;2023-10-08T15:39:28;9.60;;;4.87;;
7527;SDS011;3805;49.006;8.514;2023-10-08T15:42:16;7.37;;;4.63;;
7527;SDS011;3805;49.006;8.514;2023-10-08T15:45:05;7.67;;;4.80;;
7527;SDS011;3805;49.006;8.514;2023-10-08T15:47:55;7.20;;;4.97;;
7527;SDS011;3805;49.006;8.514;2023-10-08T15:50:45;7.93;;;4.10;;
7527;SDS011;3805;49.006;8.514;2023-10-08T15:53:35;8.10;;;5.07;;
7527;SDS011;3805;49.006;8.514;2023-10-08T15:56:23;9.90;;;5.33;;
7527;SDS011;3805;49.006;8.514;2023-10-08T15:59:13;9.00;;;4.50;;
7527;SDS011;3805;49.006;8.514;2023-10-08T16:02:02;6.30;;;4.03;;
7527;SDS011;3805;49.006;8.514;2023-10-08T16:04:50;8.57;;;5.13;;
7527;SDS011;3805;49.006;8.514;2023-10-08T16:07:39;6.13;;;4.70;;
7527;SDS011;3805;49.006;8.514;2023-10-08T16:10:29;7.33;;;4.60;;
7527;SDS011;3805;49.006;8.514;2023-10-08T16:13:17;7.67;;;5.10;;
7527;SDS011;3805;49.006;8.514;2023-10-08T16:16:06;6.03;;;4.60;;
7527;SDS011;3805;49.006;8.514;2023-10-08T16:18:55;10.83;;;5.37;;
7527;SDS011;3805;49.006;8.514;2023-10-08T16:21:44;5.97;;;4.10;;
7527;SDS011;3805;49.006;8.514;2023-10-08T16:24:32;14.10;;;5.30;;
7527;SDS011;3805;49.006;8.514;2023-10-08T16:27:22;9.50;;;4.80;;
7527;SDS011;3805;49.006;8.514;2023-10-08T16:30:11;10.53;;;4.67;;
7527;SDS011;3805;49.006;8.514;2023-10-08T16:33:03;12.73;;;6.00;;
7527;SDS011;3805;49.006;8.514;2023-10-08T16:35:53;15.23;;;9.93;;
7527;SDS011;3805;49.006;8.514;2023-10-08T16:38:42;9.30;;;6.30;;
7527;SDS011;3805;49.006;8.514;2023-10-08T16:41:32;11.60;;;5.77;;
7527;SDS011;3805;49.006;8.514;2023-10-08T16:44:22;8.50;;;5.37;;
7527;SDS011;3805;49.006;8.514;2023-10-08T16:47:10;7.70;;;4.80;;
7527;SDS011;3805;49.006;8.514;2023-10-08T16:49:59;11.80;;;7.23;;
7527;SDS011;3805;49.006;8.514;2023-10-08T16:52:48;11.07;;;5.93;;
7527;SDS011;3805;49.006;8.514;2023-10-08T16:55:36;7.80;;;5.77;;
7527;SDS011;3805;49.006;8.514;2023-10-08T16:58:25;7.00;;;5.20;;
7527;SDS011;3805;49.006;8.514;2023-10-08T17:01:15;13.83;;;6.30;;
7527;SDS011;3805;49.006;8.514;2023-10-08T17:04:04;10.43;;;7.30;;
7527;SDS011;3805;49.006;8.514;2023-10-08T17:06:54;9.50;;;7.07;;
7527;SDS011;3805;49.006;8.514;2023-10-08T17:09:44;15.87;;;7.10;;
7527;SDS011;3805;49.006;8.514;2023-10-08T17:12:32;13.97;;;8.50;;
7527;SDS011;3805;49.006;8.514;2023-10-08T17:15:21;11.53;;;6.70;;
7527;SDS011;3805;49.006;8.514;2023-10-08T17:18:11;10.67;;;7.10;;
7527;SDS011;3805;49.006;8.514;2023-10-08T17:21:00;15.63;;;7.70;;
7527;SDS011;3805;49.006;8.514;2023-10-08T17:23:49;9.10;;;6.73;;
7527;SDS011;3805;49.006;8.514;2023-10-08T17:26:38;11.87;;;7.67;;
7527;SDS011;3805;49.006;8.514;2023-10-08T17:29:27;15.70;;;8.50;;
7527;SDS011;3805;49.006;8.514;2023-10-08T17:32:16;11.57;;;8.40;;
7527;SDS011;3805;49.006;8.514;2023-10-08T17:35:08;13.80;;;8.53;;
7527;SDS011;3805;49.006;8.514;2023-10-08T17:37:57;21.03;;;10.80;;
7527;SDS011;3805;49.006;8.514;2023-10-08T17:40:45;13.40;;;8.70;;
7527;SDS011;3805;49.006;8.514;2023-10-08T17:43:34;10.40;;;7.47;;
7527;SDS011;3805;49.006;8.514;2023-10-08T17:46:22;14.00;;;8.10;;
7527;SDS011;3805;49.006;8.514;2023-10-08T17:49:13;18.93;;;10.47;;
7527;SDS011;3805;49.006;8.514;2023-10-08T17:52:03;14.30;;;10.53;;